• Join FlightAware (Why Join?)
  • Login
  • US Flag 
05:37AM EST


 

Airport Tracker/Info


-or-


 

Live Flight TrackerFlight Track Log ✈ AAY841 ✈ 27-Mar-2014 ✈ KTRI - KPIE

Flight Track Log - Related Links

Times and Time Zones

All times are in EDT time to prevent confusion due to time zone crossing. See the AAY841 flight status page for this flight to view local times or setup timezone preferences in your user account.

Time Position Orientation Groundspeed Altitude Reporting Facility
EDT Latitude Longitude Course Direction KTS MPH feet Rate Location/Type
09:05AM 36.4025 -82.4522 171° South 171 197 4,800  Level Atlanta Center
09:06AM 36.3314 -82.4383 171° South 225 259 7,900 2,760 Climbing Atlanta Center
09:07AM 36.2561 -82.4244 172° South 267 307 10,400 2,280 Climbing Atlanta Center
09:08AM 36.1664 -82.4081 172° South 308 354 12,500 2,700 Climbing Atlanta Center
09:09AM 36.0744 -82.3997 176° South 332 382 15,800 2,520 Climbing Atlanta Center
09:10AM 35.9764 -82.4017 181° South 351 404 17,600 1,980 Climbing Atlanta Center
09:11AM 35.8722 -82.4011 180° South 369 425 19,800 2,220 Climbing Atlanta Center
09:12AM 35.7594 -82.4061 182° South 374 430 22,100 1,680 Climbing Atlanta Center
09:16AM 35.1653 -82.4201 181° South 421 484 29,000 1,320 Climbing FlightAware ADS-B (KDZJ)
09:18AM 34.9824 -82.4245 181° South 432 497 30,000 720 Climbing FlightAware ADS-B (KDZJ)
09:18AM 34.9220 -82.4261 181° South 432 497 30,500 840 Climbing FlightAware ADS-B (KDZJ)
09:19AM 34.8388 -82.4283 181° South 437 503 31,000 1,020 Climbing FlightAware ADS-B (KDZJ)
09:20AM 34.7580 -82.4302 181° South 434 499 31,900 1,680 Climbing FlightAware ADS-B (KDZJ)
09:20AM 34.6716 -82.4320 181° South 433 498 33,300 1,320 Climbing FlightAware ADS-B (KDZJ)
09:21AM 34.5734 -82.4346 181° South 435 501 34,000 420 Climbing FlightAware ADS-B (KDZJ)
09:22AM 34.5894 -82.4367 181° South 441 507 34,000 300 Level Atlanta Center
09:23AM 34.4706 -82.4389 181° South 441 507 34,600 960 Climbing Atlanta Center
09:24AM 34.3494 -82.4411 181° South 441 507 36,000 660 Climbing Atlanta Center
09:25AM 34.2325 -82.4433 181° South 429 494 36,000 360 Level Atlanta Center
09:26AM 34.0928 -82.4458 181° South 445 512 36,800 720 Climbing Atlanta Center
09:27AM 33.9761 -82.4506 182° South 440 506 37,500 540 Climbing Atlanta Center
09:28AM 33.8656 -82.4553 182° South 440 506 37,900 240 Climbing Atlanta Center
09:29AM 33.7444 -82.4575 181° South 440 506 38,000  Climbing Atlanta Center
09:30AM 33.6233 -82.4622 182° South 446 513 38,000  Level Atlanta Center
09:31AM 33.5003 -82.4669 182° South 439 505 38,000  Level Atlanta Center
09:32AM 33.3750 -82.4717 182° South 439 505 38,000  Level Atlanta Center
09:33AM 33.2478 -82.4739 181° South 432 497 38,000  Level Atlanta Center
09:34AM 33.1247 -82.4761 181° South 432 497 38,000  Level Atlanta Center
09:36AM 32.8883 -82.4844 182° South 426 490 38,000  Level Jacksonville Center
09:37AM 32.7672 -82.4875 181° South 432 497 38,000  Level Jacksonville Center
09:38AM 32.6439 -82.4978 184° South 438 504 38,000  Level Jacksonville Center
09:39AM 32.5250 -82.4911 177° South 438 504 38,000  Level Jacksonville Center
09:40AM 32.4081 -82.4989 183° South 433 498 38,000  Level Jacksonville Center
09:41AM 32.2911 -82.5017 181° South 433 498 38,000  Level Jacksonville Center
09:42AM 32.1700 -82.5047 181° South 428 493 38,000  Level Jacksonville Center
09:43AM 32.0511 -82.5078 181° South 428 493 38,000  Level Jacksonville Center
09:44AM 31.9322 -82.5108 181° South 428 493 38,000  Level Jacksonville Center
09:45AM 31.8153 -82.5136 181° South 423 487 38,000  Level Jacksonville Center
09:46AM 31.6961 -82.5189 182° South 423 487 38,000  Level Jacksonville Center
09:47AM 31.5792 -82.5219 181° South 423 487 38,000  Level Jacksonville Center
09:48AM 31.4583 -82.5272 182° South 423 487 38,000  Level Jacksonville Center
09:49AM 31.3392 -82.5325 182° South 423 487 38,000 -360 Level Jacksonville Center
09:54AM 30.6884 -82.5472 181° South 426 490 36,000 -420 Descending FlightAware ADS-B (KMCO)
09:56AM 30.5741 -82.5506 181° South 424 488 35,600 -600 Descending FlightAware ADS-B (KMCO)
09:56AM 30.5083 -82.5517 178° South 419 482 35,100 -960 Descending FlightAware ADS-B (KMCO)
09:57AM 30.4291 -82.5365 169° South 425 489 34,500 -960 Descending FlightAware ADS-B (KMCO)
09:58AM 30.2567 -82.4997 170° South 420 483 33,100 -1,020 Descending FlightAware ADS-B (KMCO)
09:59AM 30.1413 -82.4758 170° South 442 509 32,100 -960 Descending FlightAware ADS-B (KMCO)
10:00AM 30.0830 -82.4632 170° South 439 505 31,700 -900 Descending FlightAware ADS-B (KMCO)
10:00AM 30.0191 -82.4497 170° South 447 514 31,200 -1,080 Descending FlightAware ADS-B (KMCO)
10:01AM 29.9150 -82.4277 170° South 450 518 30,300 -1,080 Descending FlightAware ADS-B (KMCO)
10:02AM 29.8343 -82.4105 170° South 444 511 29,600 -1,020 Descending FlightAware ADS-B (KMCO)
10:02AM 29.7556 -82.3940 170° South 436 502 29,000 -960 Descending FlightAware ADS-B (KMCO)
10:03AM 29.6994 -82.3820 170° South 434 499 28,500 -1,260 Descending FlightAware ADS-B (KMCO)
10:04AM 29.6142 -82.3642 170° South 433 498 27,500 -1,500 Descending FlightAware ADS-B (KMCO)
10:04AM 29.5196 -82.3503 174° South 395 455 26,300 -1,620 Descending FlightAware ADS-B (KMCO)
10:05AM 29.4658 -82.3435 174° South 387 445 25,400 -1,800 Descending FlightAware ADS-B (KMCO)
10:05AM 29.4126 -82.3375 174° South 379 436 24,500 -1,680 Descending FlightAware ADS-B (KMCO)
10:06AM 29.3445 -82.3292 174° South 370 426 23,500 -1,560 Descending FlightAware ADS-B (KMCO)
10:07AM 29.2962 -82.3236 174° South 369 425 22,700 -1,500 Descending FlightAware ADS-B (KMCO)
10:07AM 29.2153 -82.3139 174° South 372 428 21,600 -2,040 Descending FlightAware ADS-B (KMCO)
10:08AM 29.1093 -82.3015 174° South 382 440 19,100 -2,280 Descending FlightAware ADS-B (KMCO)
10:09AM 29.0363 -82.2929 174° South 373 429 17,800 -1,920 Descending FlightAware ADS-B (KMCO)
10:10AM 28.9580 -82.2833 174° South 356 410 16,100 -1,920 Descending FlightAware ADS-B (KMCO)
10:10AM 28.8987 -82.2763 174° South 356 410 15,200 -1,620 Descending FlightAware ADS-B (KMCO)
10:11AM 28.8216 -82.2672 174° South 346 398 14,000 -1,380 Descending FlightAware ADS-B (KMCO)
10:13AM 28.6388 -82.2560 179° South 311 358 11,300 -1,260 Descending FlightAware ADS-B (KMCO)
10:14AM 28.5956 -82.2554 179° South 311 358 10,800 -1,140 Descending FlightAware ADS-B (KMCO)
10:14AM 28.5324 -82.2543 179° South 311 358 10,000 -780 Descending FlightAware ADS-B (KMCO)
10:15AM 28.4546 -82.2754 233° Southwest 296 341 9,600  Descending FlightAware ADS-B (KMCO)
10:17AM 28.4333 -82.3833 233° Southwest 295 339 10,100 180 Climbing Tampa TRACON
10:18AM 28.4333 -82.4667 270° West 301 346 10,100  Level Tampa TRACON
10:19AM 28.3667 -82.5500 228° Southwest 299 344 10,100  Level Tampa TRACON
10:20AM 28.3333 -82.6333 246° West 304 350 10,100 -60 Level Tampa TRACON
10:20AM 28.2833 -82.7000 230° Southwest 302 348 10,000 -1,080 Descending Tampa TRACON
10:21AM 28.2333 -82.7667 230° Southwest 278 320 8,200 -1,680 Descending Tampa TRACON
10:23AM 28.1500 -82.7833 190° South 266 306 6,500 -1,620 Descending Tampa TRACON
10:24AM 28.0833 -82.8000 192° South 262 302 4,800 -1,500 Descending Tampa TRACON
10:25AM 28.0000 -82.8333 199° South 253 291 3,400 -900 Descending Tampa TRACON
10:25AM 27.9667 -82.8333 180° South 217 250 3,100 -180 Descending Tampa TRACON
10:26AM 27.9167 -82.8000 149° Southeast 176 203 3,100 -240 Level Tampa TRACON
10:27AM 27.8667 -82.7833 164° South 177 204 2,700 -360 Descending Tampa TRACON
10:28AM 27.8167 -82.7667 164° South 174 200 2,400 -540 Descending Tampa TRACON
10:29AM 27.8333 -82.7167 69° East 155 178 1,700 -600 Descending Tampa TRACON
10:31AM 27.8500 -82.6833 61° Northeast 135 155 1,200 -660 Descending Tampa TRACON
10:32AM 27.8833 -82.6833 360° North 148 170 400 -840 Descending Tampa TRACON